sensor_id;sensor_type;location;lat;lon;timestamp;temperature;humidity
17381;DHT22;8808;52.478;13.378;2023-04-29T00:01:20;12.50;99.90
17381;DHT22;8808;52.478;13.378;2023-04-29T00:03:47;12.40;99.90
17381;DHT22;8808;52.478;13.378;2023-04-29T00:06:14;12.40;99.90
17381;DHT22;8808;52.478;13.378;2023-04-29T00:08:41;12.50;99.90
17381;DHT22;8808;52.478;13.378;2023-04-29T00:11:08;12.50;99.90
17381;DHT22;8808;52.478;13.378;2023-04-29T00:13:36;12.50;99.90
17381;DHT22;8808;52.478;13.378;2023-04-29T00:16:04;12.50;99.90
17381;DHT22;8808;52.478;13.378;2023-04-29T00:18:33;12.50;99.90
17381;DHT22;8808;52.478;13.378;2023-04-29T00:21:01;12.40;99.90
17381;DHT22;8808;52.478;13.378;2023-04-29T00:23:30;12.40;99.90
17381;DHT22;8808;52.478;13.378;2023-04-29T00:25:57;12.30;99.90
17381;DHT22;8808;52.478;13.378;2023-04-29T00:28:24;12.40;99.90
17381;DHT22;8808;52.478;13.378;2023-04-29T00:30:51;12.40;99.90
17381;DHT22;8808;52.478;13.378;2023-04-29T00:33:18;12.30;99.90
17381;DHT22;8808;52.478;13.378;2023-04-29T00:35:46;12.30;99.90
17381;DHT22;8808;52.478;13.378;2023-04-29T00:38:13;12.30;99.90
17381;DHT22;8808;52.478;13.378;2023-04-29T00:40:41;12.30;99.90
17381;DHT22;8808;52.478;13.378;2023-04-29T00:43:08;12.20;99.90
17381;DHT22;8808;52.478;13.378;2023-04-29T00:45:35;12.20;99.90
17381;DHT22;8808;52.478;13.378;2023-04-29T00:48:02;12.20;99.90
17381;DHT22;8808;52.478;13.378;2023-04-29T00:50:29;12.10;99.90
17381;DHT22;8808;52.478;13.378;2023-04-29T00:52:58;12.10;99.90
17381;DHT22;8808;52.478;13.378;2023-04-29T00:55:26;12.20;99.90
17381;DHT22;8808;52.478;13.378;2023-04-29T00:57:53;12.20;99.90
17381;DHT22;8808;52.478;13.378;2023-04-29T01:00:20;12.10;99.90
17381;DHT22;8808;52.478;13.378;2023-04-29T01:02:55;12.20;99.90
17381;DHT22;8808;52.478;13.378;2023-04-29T01:05:22;12.20;99.90
17381;DHT22;8808;52.478;13.378;2023-04-29T01:07:58;12.20;99.90
17381;DHT22;8808;52.478;13.378;2023-04-29T01:10:28;12.20;99.90
17381;DHT22;8808;52.478;13.378;2023-04-29T01:13:05;12.20;99.90
17381;DHT22;8808;52.478;13.378;2023-04-29T01:15:39;12.20;99.90
17381;DHT22;8808;52.478;13.378;2023-04-29T01:18:13;12.20;99.90
17381;DHT22;8808;52.478;13.378;2023-04-29T01:20:42;12.00;99.90
17381;DHT22;8808;52.478;13.378;2023-04-29T01:23:09;11.80;99.90
17381;DHT22;8808;52.478;13.378;2023-04-29T01:25:38;11.60;99.90
17381;DHT22;8808;52.478;13.378;2023-04-29T01:28:13;11.60;99.90
17381;DHT22;8808;52.478;13.378;2023-04-29T01:30:46;11.50;99.90
17381;DHT22;8808;52.478;13.378;2023-04-29T01:33:21;11.40;99.90
17381;DHT22;8808;52.478;13.378;2023-04-29T01:36:00;11.40;99.90
17381;DHT22;8808;52.478;13.378;2023-04-29T01:38:35;11.40;99.90
17381;DHT22;8808;52.478;13.378;2023-04-29T01:41:09;11.30;99.90
17381;DHT22;8808;52.478;13.378;2023-04-29T01:43:38;11.30;99.90
17381;DHT22;8808;52.478;13.378;2023-04-29T01:46:08;11.40;99.90
17381;DHT22;8808;52.478;13.378;2023-04-29T01:48:35;11.30;99.90
17381;DHT22;8808;52.478;13.378;2023-04-29T01:51:02;11.30;99.90
17381;DHT22;8808;52.478;13.378;2023-04-29T01:53:31;11.20;99.90
17381;DHT22;8808;52.478;13.378;2023-04-29T01:55:58;11.20;99.90
17381;DHT22;8808;52.478;13.378;2023-04-29T01:58:26;11.10;99.90
17381;DHT22;8808;52.478;13.378;2023-04-29T02:00:54;11.10;99.90
17381;DHT22;8808;52.478;13.378;2023-04-29T02:03:21;11.20;99.90
17381;DHT22;8808;52.478;13.378;2023-04-29T02:05:48;11.10;99.90
17381;DHT22;8808;52.478;13.378;2023-04-29T02:08:15;11.10;99.90
17381;DHT22;8808;52.478;13.378;2023-04-29T02:10:51;11.10;99.90
17381;DHT22;8808;52.478;13.378;2023-04-29T02:13:18;11.10;99.90
17381;DHT22;8808;52.478;13.378;2023-04-29T02:15:46;11.10;99.90
17381;DHT22;8808;52.478;13.378;2023-04-29T02:18:13;11.10;99.90
17381;DHT22;8808;52.478;13.378;2023-04-29T02:20:40;11.10;99.90
17381;DHT22;8808;52.478;13.378;2023-04-29T02:23:07;11.20;99.90
17381;DHT22;8808;52.478;13.378;2023-04-29T02:25:34;11.20;99.90
17381;DHT22;8808;52.478;13.378;2023-04-29T02:28:01;11.20;99.90
17381;DHT22;8808;52.478;13.378;2023-04-29T02:30:28;11.30;99.90
17381;DHT22;8808;52.478;13.378;2023-04-29T02:32:57;11.20;99.90
17381;DHT22;8808;52.478;13.378;2023-04-29T02:35:24;11.20;99.90
17381;DHT22;8808;52.478;13.378;2023-04-29T02:37:51;11.10;99.90
17381;DHT22;8808;52.478;13.378;2023-04-29T02:40:18;11.20;99.90
17381;DHT22;8808;52.478;13.378;2023-04-29T02:42:45;11.20;99.90
17381;DHT22;8808;52.478;13.378;2023-04-29T02:45:12;11.10;99.90
17381;DHT22;8808;52.478;13.378;2023-04-29T02:47:39;11.10;99.90
17381;DHT22;8808;52.478;13.378;2023-04-29T02:50:08;11.20;99.90
17381;DHT22;8808;52.478;13.378;2023-04-29T02:52:36;11.10;99.90
17381;DHT22;8808;52.478;13.378;2023-04-29T02:55:03;11.20;99.90
17381;DHT22;8808;52.478;13.378;2023-04-29T02:57:30;11.30;99.90
17381;DHT22;8808;52.478;13.378;2023-04-29T02:59:57;11.30;99.90
17381;DHT22;8808;52.478;13.378;2023-04-29T03:02:24;11.30;99.90
17381;DHT22;8808;52.478;13.378;2023-04-29T03:04:51;11.30;99.90
17381;DHT22;8808;52.478;13.378;2023-04-29T03:07:19;11.40;99.90
17381;DHT22;8808;52.478;13.378;2023-04-29T03:09:46;11.40;99.90
17381;DHT22;8808;52.478;13.378;2023-04-29T03:12:13;11.30;99.90
17381;DHT22;8808;52.478;13.378;2023-04-29T03:14:41;11.30;99.90
17381;DHT22;8808;52.478;13.378;2023-04-29T03:17:08;11.40;99.90
17381;DHT22;8808;52.478;13.378;2023-04-29T03:19:35;11.30;99.90
17381;DHT22;8808;52.478;13.378;2023-04-29T03:22:02;11.30;99.90
17381;DHT22;8808;52.478;13.378;2023-04-29T03:24:31;11.40;99.90
17381;DHT22;8808;52.478;13.378;2023-04-29T03:26:58;11.40;99.90
17381;DHT22;8808;52.478;13.378;2023-04-29T03:29:25;11.40;99.90
17381;DHT22;8808;52.478;13.378;2023-04-29T03:31:53;11.50;99.90
17381;DHT22;8808;52.478;13.378;2023-04-29T03:34:21;11.40;99.90
17381;DHT22;8808;52.478;13.378;2023-04-29T03:36:49;11.40;99.90
17381;DHT22;8808;52.478;13.378;2023-04-29T03:39:16;11.60;99.90
17381;DHT22;8808;52.478;13.378;2023-04-29T03:41:46;11.50;99.90
17381;DHT22;8808;52.478;13.378;2023-04-29T03:44:13;11.50;99.90
17381;DHT22;8808;52.478;13.378;2023-04-29T03:46:40;11.50;99.90
17381;DHT22;8808;52.478;13.378;2023-04-29T03:49:07;11.60;99.90
17381;DHT22;8808;52.478;13.378;2023-04-29T03:51:34;11.60;99.90
17381;DHT22;8808;52.478;13.378;2023-04-29T03:54:01;11.60;99.90
17381;DHT22;8808;52.478;13.378;2023-04-29T03:56:28;11.60;99.90
17381;DHT22;8808;52.478;13.378;2023-04-29T03:58:56;11.60;99.90
17381;DHT22;8808;52.478;13.378;2023-04-29T04:01:23;11.60;99.90
17381;DHT22;8808;52.478;13.378;2023-04-29T04:03:50;11.50;99.90
17381;DHT22;8808;52.478;13.378;2023-04-29T04:06:17;11.60;99.90
17381;DHT22;8808;52.478;13.378;2023-04-29T04:08:44;11.60;99.90
17381;DHT22;8808;52.478;13.378;2023-04-29T04:11:11;11.60;99.90
17381;DHT22;8808;52.478;13.378;2023-04-29T04:13:39;11.70;99.90
17381;DHT22;8808;52.478;13.378;2023-04-29T04:16:08;11.70;99.90
17381;DHT22;8808;52.478;13.378;2023-04-29T04:18:35;11.70;99.90
17381;DHT22;8808;52.478;13.378;2023-04-29T04:21:06;11.70;99.90
17381;DHT22;8808;52.478;13.378;2023-04-29T04:23:33;11.70;99.90
17381;DHT22;8808;52.478;13.378;2023-04-29T04:26:00;11.70;99.90
17381;DHT22;8808;52.478;13.378;2023-04-29T04:28:28;11.70;99.90
17381;DHT22;8808;52.478;13.378;2023-04-29T04:30:55;11.70;99.90
17381;DHT22;8808;52.478;13.378;2023-04-29T04:33:23;11.80;99.90
17381;DHT22;8808;52.478;13.378;2023-04-29T04:35:50;11.80;99.90
17381;DHT22;8808;52.478;13.378;2023-04-29T04:38:17;11.80;99.90
17381;DHT22;8808;52.478;13.378;2023-04-29T04:40:44;11.80;99.90
17381;DHT22;8808;52.478;13.378;2023-04-29T04:43:11;11.80;99.90
17381;DHT22;8808;52.478;13.378;2023-04-29T04:45:38;11.80;99.90
17381;DHT22;8808;52.478;13.378;2023-04-29T04:48:05;11.80;99.90
17381;DHT22;8808;52.478;13.378;2023-04-29T04:50:33;11.80;99.90
17381;DHT22;8808;52.478;13.378;2023-04-29T04:53:00;11.80;99.90
17381;DHT22;8808;52.478;13.378;2023-04-29T04:55:28;11.80;99.90
17381;DHT22;8808;52.478;13.378;2023-04-29T04:57:56;11.90;99.90
17381;DHT22;8808;52.478;13.378;2023-04-29T05:00:23;11.90;99.90
17381;DHT22;8808;52.478;13.378;2023-04-29T05:02:50;11.90;99.90
17381;DHT22;8808;52.478;13.378;2023-04-29T05:05:17;11.90;99.90
17381;DHT22;8808;52.478;13.378;2023-04-29T05:07:45;11.80;99.90
17381;DHT22;8808;52.478;13.378;2023-04-29T05:10:13;11.90;99.90
17381;DHT22;8808;52.478;13.378;2023-04-29T05:12:40;11.90;99.90
17381;DHT22;8808;52.478;13.378;2023-04-29T05:15:07;11.80;99.90
17381;DHT22;8808;52.478;13.378;2023-04-29T05:17:34;11.80;99.90
17381;DHT22;8808;52.478;13.378;2023-04-29T05:20:01;11.90;99.90
17381;DHT22;8808;52.478;13.378;2023-04-29T05:22:28;11.90;99.90
17381;DHT22;8808;52.478;13.378;2023-04-29T05:24:57;11.90;99.90
17381;DHT22;8808;52.478;13.378;2023-04-29T05:27:27;11.90;99.90
17381;DHT22;8808;52.478;13.378;2023-04-29T05:29:54;11.90;99.90
17381;DHT22;8808;52.478;13.378;2023-04-29T05:32:21;11.90;99.90
17381;DHT22;8808;52.478;13.378;2023-04-29T05:34:48;11.90;99.90
17381;DHT22;8808;52.478;13.378;2023-04-29T05:37:15;11.90;99.90
17381;DHT22;8808;52.478;13.378;2023-04-29T05:39:42;11.90;99.90
17381;DHT22;8808;52.478;13.378;2023-04-29T05:42:11;12.00;99.90
17381;DHT22;8808;52.478;13.378;2023-04-29T05:44:38;12.10;99.90
17381;DHT22;8808;52.478;13.378;2023-04-29T05:47:05;12.00;99.90
17381;DHT22;8808;52.478;13.378;2023-04-29T05:49:32;12.00;99.90
17381;DHT22;8808;52.478;13.378;2023-04-29T05:51:59;12.10;99.90
17381;DHT22;8808;52.478;13.378;2023-04-29T05:54:28;12.00;99.90
17381;DHT22;8808;52.478;13.378;2023-04-29T05:56:55;12.20;99.90
17381;DHT22;8808;52.478;13.378;2023-04-29T05:59:24;12.10;99.90
17381;DHT22;8808;52.478;13.378;2023-04-29T06:01:51;12.20;99.90
17381;DHT22;8808;52.478;13.378;2023-04-29T06:04:18;12.20;99.90
17381;DHT22;8808;52.478;13.378;2023-04-29T06:06:45;12.20;99.90
17381;DHT22;8808;52.478;13.378;2023-04-29T06:09:12;12.20;99.90
17381;DHT22;8808;52.478;13.378;2023-04-29T06:11:40;12.30;99.90
17381;DHT22;8808;52.478;13.378;2023-04-29T06:14:07;12.30;99.90
17381;DHT22;8808;52.478;13.378;2023-04-29T06:16:35;12.30;99.90
17381;DHT22;8808;52.478;13.378;2023-04-29T06:19:02;12.30;99.90
17381;DHT22;8808;52.478;13.378;2023-04-29T06:21:29;12.40;99.90
17381;DHT22;8808;52.478;13.378;2023-04-29T06:23:56;12.30;99.90
17381;DHT22;8808;52.478;13.378;2023-04-29T06:26:23;12.40;99.90
17381;DHT22;8808;52.478;13.378;2023-04-29T06:28:50;12.40;99.90
17381;DHT22;8808;52.478;13.378;2023-04-29T06:31:18;12.40;99.90
17381;DHT22;8808;52.478;13.378;2023-04-29T06:33:47;12.40;99.90
17381;DHT22;8808;52.478;13.378;2023-04-29T06:36:13;12.50;99.90
17381;DHT22;8808;52.478;13.378;2023-04-29T06:38:41;12.50;99.90
17381;DHT22;8808;52.478;13.378;2023-04-29T06:41:07;12.50;99.90
17381;DHT22;8808;52.478;13.378;2023-04-29T06:43:34;12.60;99.90
17381;DHT22;8808;52.478;13.378;2023-04-29T06:46:01;12.50;99.90
17381;DHT22;8808;52.478;13.378;2023-04-29T06:48:28;12.60;99.90
17381;DHT22;8808;52.478;13.378;2023-04-29T06:50:57;12.60;99.90
17381;DHT22;8808;52.478;13.378;2023-04-29T06:53:24;12.50;99.90
17381;DHT22;8808;52.478;13.378;2023-04-29T06:55:51;12.50;99.90
17381;DHT22;8808;52.478;13.378;2023-04-29T06:58:18;12.50;99.90
17381;DHT22;8808;52.478;13.378;2023-04-29T07:00:46;12.60;99.90
17381;DHT22;8808;52.478;13.378;2023-04-29T07:03:14;12.60;99.90
17381;DHT22;8808;52.478;13.378;2023-04-29T07:05:42;12.50;99.90
17381;DHT22;8808;52.478;13.378;2023-04-29T07:08:12;12.50;99.90
17381;DHT22;8808;52.478;13.378;2023-04-29T07:10:39;12.50;99.90
17381;DHT22;8808;52.478;13.378;2023-04-29T07:13:07;12.60;99.90
17381;DHT22;8808;52.478;13.378;2023-04-29T07:15:34;12.70;99.90
17381;DHT22;8808;52.478;13.378;2023-04-29T07:18:02;12.60;99.90
17381;DHT22;8808;52.478;13.378;2023-04-29T07:20:29;12.50;99.90
17381;DHT22;8808;52.478;13.378;2023-04-29T07:22:56;12.40;99.90
17381;DHT22;8808;52.478;13.378;2023-04-29T07:25:25;12.40;99.90
17381;DHT22;8808;52.478;13.378;2023-04-29T07:27:53;12.30;99.90
17381;DHT22;8808;52.478;13.378;2023-04-29T07:30:20;12.30;99.90
17381;DHT22;8808;52.478;13.378;2023-04-29T07:32:47;12.40;99.90
17381;DHT22;8808;52.478;13.378;2023-04-29T07:35:14;12.40;99.90
17381;DHT22;8808;52.478;13.378;2023-04-29T07:37:41;12.30;99.90
17381;DHT22;8808;52.478;13.378;2023-04-29T07:40:10;12.20;99.90
17381;DHT22;8808;52.478;13.378;2023-04-29T07:42:39;12.20;99.90
17381;DHT22;8808;52.478;13.378;2023-04-29T07:45:06;12.20;99.90
17381;DHT22;8808;52.478;13.378;2023-04-29T07:47:33;12.20;99.90
17381;DHT22;8808;52.478;13.378;2023-04-29T07:50:01;12.20;99.90
17381;DHT22;8808;52.478;13.378;2023-04-29T07:52:28;12.20;99.90
17381;DHT22;8808;52.478;13.378;2023-04-29T07:54:54;12.20;99.90
17381;DHT22;8808;52.478;13.378;2023-04-29T07:57:21;12.10;99.90
17381;DHT22;8808;52.478;13.378;2023-04-29T07:59:51;12.10;99.90
17381;DHT22;8808;52.478;13.378;2023-04-29T08:02:18;12.10;99.90
17381;DHT22;8808;52.478;13.378;2023-04-29T08:04:46;12.00;99.90
17381;DHT22;8808;52.478;13.378;2023-04-29T08:07:13;12.10;99.90
17381;DHT22;8808;52.478;13.378;2023-04-29T08:09:40;12.00;99.90
17381;DHT22;8808;52.478;13.378;2023-04-29T08:12:07;12.00;99.90
17381;DHT22;8808;52.478;13.378;2023-04-29T08:14:34;12.00;99.90
17381;DHT22;8808;52.478;13.378;2023-04-29T08:17:03;11.90;99.90
17381;DHT22;8808;52.478;13.378;2023-04-29T08:19:30;12.00;99.90
17381;DHT22;8808;52.478;13.378;2023-04-29T08:21:57;12.00;99.90
17381;DHT22;8808;52.478;13.378;2023-04-29T08:24:25;11.90;99.90
17381;DHT22;8808;52.478;13.378;2023-04-29T08:26:53;11.90;99.90
17381;DHT22;8808;52.478;13.378;2023-04-29T08:29:20;12.00;99.90
17381;DHT22;8808;52.478;13.378;2023-04-29T08:31:47;12.00;99.90
17381;DHT22;8808;52.478;13.378;2023-04-29T08:34:16;11.90;99.90
17381;DHT22;8808;52.478;13.378;2023-04-29T08:36:43;11.90;99.90
17381;DHT22;8808;52.478;13.378;2023-04-29T08:39:10;12.00;99.90
17381;DHT22;8808;52.478;13.378;2023-04-29T08:41:37;11.90;99.90
17381;DHT22;8808;52.478;13.378;2023-04-29T08:44:04;11.90;99.90
17381;DHT22;8808;52.478;13.378;2023-04-29T08:46:31;11.80;99.90
17381;DHT22;8808;52.478;13.378;2023-04-29T08:49:00;11.90;99.90
17381;DHT22;8808;52.478;13.378;2023-04-29T08:51:30;11.80;99.90
17381;DHT22;8808;52.478;13.378;2023-04-29T08:53:57;11.80;99.90
17381;DHT22;8808;52.478;13.378;2023-04-29T08:56:24;11.90;99.90
17381;DHT22;8808;52.478;13.378;2023-04-29T08:58:54;11.90;99.90
17381;DHT22;8808;52.478;13.378;2023-04-29T09:01:25;11.80;99.90
17381;DHT22;8808;52.478;13.378;2023-04-29T09:04:00;11.80;99.90
17381;DHT22;8808;52.478;13.378;2023-04-29T09:06:31;11.90;99.90
17381;DHT22;8808;52.478;13.378;2023-04-29T09:08:59;11.80;99.90
17381;DHT22;8808;52.478;13.378;2023-04-29T09:11:28;11.80;99.90
17381;DHT22;8808;52.478;13.378;2023-04-29T09:13:58;11.80;99.90
17381;DHT22;8808;52.478;13.378;2023-04-29T09:16:26;11.80;99.90
17381;DHT22;8808;52.478;13.378;2023-04-29T09:18:53;11.80;99.90
17381;DHT22;8808;52.478;13.378;2023-04-29T09:21:22;11.80;99.90
17381;DHT22;8808;52.478;13.378;2023-04-29T09:23:52;11.90;99.90
17381;DHT22;8808;52.478;13.378;2023-04-29T09:26:19;11.90;99.90
17381;DHT22;8808;52.478;13.378;2023-04-29T09:28:46;11.80;99.90
17381;DHT22;8808;52.478;13.378;2023-04-29T09:31:14;11.70;99.90
17381;DHT22;8808;52.478;13.378;2023-04-29T09:33:59;11.80;99.90
17381;DHT22;8808;52.478;13.378;2023-04-29T09:36:36;11.80;99.90
17381;DHT22;8808;52.478;13.378;2023-04-29T09:39:04;11.90;99.90
17381;DHT22;8808;52.478;13.378;2023-04-29T09:41:37;11.90;99.90
17381;DHT22;8808;52.478;13.378;2023-04-29T09:44:05;11.90;99.90
17381;DHT22;8808;52.478;13.378;2023-04-29T09:46:33;11.80;99.90
17381;DHT22;8808;52.478;13.378;2023-04-29T09:49:01;11.70;99.90
17381;DHT22;8808;52.478;13.378;2023-04-29T09:51:29;11.80;99.90
17381;DHT22;8808;52.478;13.378;2023-04-29T09:53:58;11.70;99.90
17381;DHT22;8808;52.478;13.378;2023-04-29T09:56:27;11.70;99.90
17381;DHT22;8808;52.478;13.378;2023-04-29T09:58:55;11.70;99.90
17381;DHT22;8808;52.478;13.378;2023-04-29T10:01:24;11.80;99.90
17381;DHT22;8808;52.478;13.378;2023-04-29T10:03:53;11.70;99.90
17381;DHT22;8808;52.478;13.378;2023-04-29T10:06:21;11.60;99.90
17381;DHT22;8808;52.478;13.378;2023-04-29T10:08:48;11.80;99.90
17381;DHT22;8808;52.478;13.378;2023-04-29T10:11:16;11.60;99.90
17381;DHT22;8808;52.478;13.378;2023-04-29T10:13:45;11.60;99.90
17381;DHT22;8808;52.478;13.378;2023-04-29T10:16:22;11.60;99.90
17381;DHT22;8808;52.478;13.378;2023-04-29T10:18:55;11.60;99.90
17381;DHT22;8808;52.478;13.378;2023-04-29T10:21:27;11.60;99.90
17381;DHT22;8808;52.478;13.378;2023-04-29T10:23:56;11.60;99.90
17381;DHT22;8808;52.478;13.378;2023-04-29T10:26:26;11.50;99.90
17381;DHT22;8808;52.478;13.378;2023-04-29T10:28:55;11.60;99.90
17381;DHT22;8808;52.478;13.378;2023-04-29T10:31:25;11.70;99.90
17381;DHT22;8808;52.478;13.378;2023-04-29T10:33:55;11.90;99.90
17381;DHT22;8808;52.478;13.378;2023-04-29T10:36:23;13.10;99.90
17381;DHT22;8808;52.478;13.378;2023-04-29T10:38:54;12.10;99.90
17381;DHT22;8808;52.478;13.378;2023-04-29T10:41:25;11.80;99.90
17381;DHT22;8808;52.478;13.378;2023-04-29T10:43:55;11.80;99.90
17381;DHT22;8808;52.478;13.378;2023-04-29T10:46:25;11.90;99.90
17381;DHT22;8808;52.478;13.378;2023-04-29T10:48:56;11.80;99.90
17381;DHT22;8808;52.478;13.378;2023-04-29T10:51:28;11.80;99.90
17381;DHT22;8808;52.478;13.378;2023-04-29T10:54:01;11.90;99.90
17381;DHT22;8808;52.478;13.378;2023-04-29T10:56:41;11.90;99.90
17381;DHT22;8808;52.478;13.378;2023-04-29T10:59:11;11.90;99.90
17381;DHT22;8808;52.478;13.378;2023-04-29T11:01:44;12.00;99.90
17381;DHT22;8808;52.478;13.378;2023-04-29T11:04:11;11.90;99.90
17381;DHT22;8808;52.478;13.378;2023-04-29T11:06:40;11.90;99.90
17381;DHT22;8808;52.478;13.378;2023-04-29T11:09:09;12.00;99.90
17381;DHT22;8808;52.478;13.378;2023-04-29T11:11:41;11.90;99.90
17381;DHT22;8808;52.478;13.378;2023-04-29T11:14:11;12.10;99.90
17381;DHT22;8808;52.478;13.378;2023-04-29T11:16:46;12.20;99.90
17381;DHT22;8808;52.478;13.378;2023-04-29T11:19:15;12.30;99.90
17381;DHT22;8808;52.478;13.378;2023-04-29T11:21:44;12.30;99.90
17381;DHT22;8808;52.478;13.378;2023-04-29T11:24:11;12.40;99.90
17381;DHT22;8808;52.478;13.378;2023-04-29T11:26:40;12.30;99.90
17381;DHT22;8808;52.478;13.378;2023-04-29T11:29:09;12.30;99.90
17381;DHT22;8808;52.478;13.378;2023-04-29T11:31:36;12.30;99.90
17381;DHT22;8808;52.478;13.378;2023-04-29T11:34:04;12.40;99.90
17381;DHT22;8808;52.478;13.378;2023-04-29T11:36:32;12.60;99.90
17381;DHT22;8808;52.478;13.378;2023-04-29T11:38:59;12.60;99.90
17381;DHT22;8808;52.478;13.378;2023-04-29T11:41:27;12.80;99.90
17381;DHT22;8808;52.478;13.378;2023-04-29T11:43:54;13.90;99.90
17381;DHT22;8808;52.478;13.378;2023-04-29T11:46:24;13.30;99.90
17381;DHT22;8808;52.478;13.378;2023-04-29T11:48:53;13.10;99.90
17381;DHT22;8808;52.478;13.378;2023-04-29T11:51:20;13.30;99.90
17381;DHT22;8808;52.478;13.378;2023-04-29T11:53:47;14.50;99.90
17381;DHT22;8808;52.478;13.378;2023-04-29T11:56:14;14.10;99.90
17381;DHT22;8808;52.478;13.378;2023-04-29T11:58:41;13.50;99.90
17381;DHT22;8808;52.478;13.378;2023-04-29T12:01:09;13.50;99.90
17381;DHT22;8808;52.478;13.378;2023-04-29T12:03:37;13.30;99.90
17381;DHT22;8808;52.478;13.378;2023-04-29T12:06:05;13.40;99.90
17381;DHT22;8808;52.478;13.378;2023-04-29T12:08:32;13.50;99.90
17381;DHT22;8808;52.478;13.378;2023-04-29T12:11:00;13.50;99.90
17381;DHT22;8808;52.478;13.378;2023-04-29T12:13:28;17.60;99.90
17381;DHT22;8808;52.478;13.378;2023-04-29T12:15:56;16.50;99.90
17381;DHT22;8808;52.478;13.378;2023-04-29T12:18:24;14.30;99.90
17381;DHT22;8808;52.478;13.378;2023-04-29T12:20:53;13.70;99.90
17381;DHT22;8808;52.478;13.378;2023-04-29T12:23:23;13.40;99.90
17381;DHT22;8808;52.478;13.378;2023-04-29T12:25:52;13.30;99.90
17381;DHT22;8808;52.478;13.378;2023-04-29T12:28:20;14.40;99.90
17381;DHT22;8808;52.478;13.378;2023-04-29T12:30:48;13.40;99.90
17381;DHT22;8808;52.478;13.378;2023-04-29T12:33:18;13.10;99.90
17381;DHT22;8808;52.478;13.378;2023-04-29T12:35:46;13.30;99.90
17381;DHT22;8808;52.478;13.378;2023-04-29T12:38:19;13.20;99.90
17381;DHT22;8808;52.478;13.378;2023-04-29T12:40:46;13.10;99.90
17381;DHT22;8808;52.478;13.378;2023-04-29T12:43:13;13.20;99.90
17381;DHT22;8808;52.478;13.378;2023-04-29T12:45:40;13.20;99.90
17381;DHT22;8808;52.478;13.378;2023-04-29T12:48:07;13.40;99.90
17381;DHT22;8808;52.478;13.378;2023-04-29T12:50:35;13.50;99.90
17381;DHT22;8808;52.478;13.378;2023-04-29T12:53:03;13.60;99.90
17381;DHT22;8808;52.478;13.378;2023-04-29T12:55:33;13.60;99.90
17381;DHT22;8808;52.478;13.378;2023-04-29T12:58:00;13.80;99.90
17381;DHT22;8808;52.478;13.378;2023-04-29T13:00:27;13.90;99.90
17381;DHT22;8808;52.478;13.378;2023-04-29T13:02:55;14.00;99.90
17381;DHT22;8808;52.478;13.378;2023-04-29T13:05:22;14.10;99.90
17381;DHT22;8808;52.478;13.378;2023-04-29T13:07:49;14.10;99.90
17381;DHT22;8808;52.478;13.378;2023-04-29T13:10:16;14.20;99.90
17381;DHT22;8808;52.478;13.378;2023-04-29T13:12:44;14.10;99.90
17381;DHT22;8808;52.478;13.378;2023-04-29T13:15:12;14.20;99.90
17381;DHT22;8808;52.478;13.378;2023-04-29T13:17:40;14.20;99.90
17381;DHT22;8808;52.478;13.378;2023-04-29T13:20:07;14.20;99.90
17381;DHT22;8808;52.478;13.378;2023-04-29T13:22:36;14.20;99.90
17381;DHT22;8808;52.478;13.378;2023-04-29T13:25:04;14.30;99.90
17381;DHT22;8808;52.478;13.378;2023-04-29T13:27:31;14.30;99.90
17381;DHT22;8808;52.478;13.378;2023-04-29T13:30:00;14.30;99.90
17381;DHT22;8808;52.478;13.378;2023-04-29T13:32:28;14.30;99.90
17381;DHT22;8808;52.478;13.378;2023-04-29T13:34:55;14.40;99.90
17381;DHT22;8808;52.478;13.378;2023-04-29T13:37:22;14.40;99.90
17381;DHT22;8808;52.478;13.378;2023-04-29T13:39:49;14.30;99.90
17381;DHT22;8808;52.478;13.378;2023-04-29T13:42:16;14.40;99.90
17381;DHT22;8808;52.478;13.378;2023-04-29T13:44:43;14.60;99.90
17381;DHT22;8808;52.478;13.378;2023-04-29T13:47:12;14.50;99.90
17381;DHT22;8808;52.478;13.378;2023-04-29T13:49:39;14.50;99.90
17381;DHT22;8808;52.478;13.378;2023-04-29T13:52:06;14.60;99.90
17381;DHT22;8808;52.478;13.378;2023-04-29T13:54:33;14.70;99.90
17381;DHT22;8808;52.478;13.378;2023-04-29T13:57:00;14.70;99.90
17381;DHT22;8808;52.478;13.378;2023-04-29T13:59:28;15.00;99.90
17381;DHT22;8808;52.478;13.378;2023-04-29T14:01:55;16.10;99.90
17381;DHT22;8808;52.478;13.378;2023-04-29T14:04:24;19.40;99.90
17381;DHT22;8808;52.478;13.378;2023-04-29T14:06:51;17.90;99.90
17381;DHT22;8808;52.478;13.378;2023-04-29T14:09:18;17.90;99.90
17381;DHT22;8808;52.478;13.378;2023-04-29T14:11:45;19.30;99.90
17381;DHT22;8808;52.478;13.378;2023-04-29T14:14:12;20.40;99.90
17381;DHT22;8808;52.478;13.378;2023-04-29T14:16:40;17.00;99.90
17381;DHT22;8808;52.478;13.378;2023-04-29T14:19:07;15.30;99.90
17381;DHT22;8808;52.478;13.378;2023-04-29T14:21:35;14.80;99.90
17381;DHT22;8808;52.478;13.378;2023-04-29T14:24:02;14.60;99.90
17381;DHT22;8808;52.478;13.378;2023-04-29T14:26:30;14.50;99.90
17381;DHT22;8808;52.478;13.378;2023-04-29T14:28:58;14.40;99.90
17381;DHT22;8808;52.478;13.378;2023-04-29T14:31:25;14.40;99.90
17381;DHT22;8808;52.478;13.378;2023-04-29T14:33:53;15.80;99.90
17381;DHT22;8808;52.478;13.378;2023-04-29T14:36:20;15.60;99.90
17381;DHT22;8808;52.478;13.378;2023-04-29T14:38:48;14.90;99.90
17381;DHT22;8808;52.478;13.378;2023-04-29T14:41:15;14.70;99.90
17381;DHT22;8808;52.478;13.378;2023-04-29T14:43:43;14.70;99.90
17381;DHT22;8808;52.478;13.378;2023-04-29T14:46:10;16.70;99.90
17381;DHT22;8808;52.478;13.378;2023-04-29T14:48:37;15.20;99.90
17381;DHT22;8808;52.478;13.378;2023-04-29T14:51:05;15.00;99.90
17381;DHT22;8808;52.478;13.378;2023-04-29T14:53:31;15.10;99.90
17381;DHT22;8808;52.478;13.378;2023-04-29T14:56:00;15.10;99.90
17381;DHT22;8808;52.478;13.378;2023-04-29T14:58:28;15.20;99.90
17381;DHT22;8808;52.478;13.378;2023-04-29T15:00:55;15.30;99.90
17381;DHT22;8808;52.478;13.378;2023-04-29T15:03:22;15.40;99.90
17381;DHT22;8808;52.478;13.378;2023-04-29T15:05:49;18.80;99.90
17381;DHT22;8808;52.478;13.378;2023-04-29T15:08:16;20.60;99.90
17381;DHT22;8808;52.478;13.378;2023-04-29T15:10:43;22.30;99.90
17381;DHT22;8808;52.478;13.378;2023-04-29T15:13:12;20.70;94.90
17381;DHT22;8808;52.478;13.378;2023-04-29T15:15:39;18.00;99.90
17381;DHT22;8808;52.478;13.378;2023-04-29T15:18:06;16.30;99.90
17381;DHT22;8808;52.478;13.378;2023-04-29T15:20:33;15.70;99.90
17381;DHT22;8808;52.478;13.378;2023-04-29T15:23:01;15.30;99.90
17381;DHT22;8808;52.478;13.378;2023-04-29T15:25:28;15.20;99.90
17381;DHT22;8808;52.478;13.378;2023-04-29T15:27:55;15.10;99.90
17381;DHT22;8808;52.478;13.378;2023-04-29T15:30:25;15.00;99.90
17381;DHT22;8808;52.478;13.378;2023-04-29T15:32:53;15.00;99.90
17381;DHT22;8808;52.478;13.378;2023-04-29T15:35:20;15.20;99.90